Time;durP1;ratioP1;P1;durP2;ratioP2;P2;SDS_P1;SDS_P2;PMS_P1;PMS_P2;Temp;Humidity;BMP_temperature;BMP_pressure;BME280_temperature;BME280_humidity;BME280_pressure;Samples;Min_cycle;Max_cycle;Signal;HPM_P1;HPM_P2
2023/03/08 00:00:13;;;;;;;10.02;4.97;;;;;;;2.90;74.26;98199.66;5054014;28;20049;-83
2023/03/08 00:02:40;;;;;;;7.90;5.00;;;;;;;2.90;75.11;98207.47;5044668;28;20052;-83
2023/03/08 00:05:07;;;;;;;5.22;3.90;;;;;;;2.87;74.28;98198.06;5045113;28;20495;-84
2023/03/08 00:07:34;;;;;;;5.90;4.07;;;;;;;2.85;74.62;98199.91;5043917;28;20083;-83
2023/03/08 00:10:00;;;;;;;7.38;4.28;;;;;;;2.80;74.76;98199.31;5053667;28;20064;-84
2023/03/08 00:12:28;;;;;;;5.97;4.38;;;;;;;2.76;74.20;98211.59;5053522;28;20127;-84
2023/03/08 00:14:54;;;;;;;8.95;4.47;;;;;;;2.71;74.81;98211.84;5053394;28;20091;-83
2023/03/08 00:17:21;;;;;;;6.28;4.13;;;;;;;2.67;74.67;98210.31;5053163;28;20064;-84
2023/03/08 00:19:50;;;;;;;5.63;4.57;;;;;;;2.65;74.92;98204.34;5053290;28;20045;-83
2023/03/08 00:22:17;;;;;;;6.30;4.53;;;;;;;2.65;74.97;98212.13;5053358;28;20110;-82
2023/03/08 00:24:43;;;;;;;6.70;4.70;;;;;;;2.64;75.29;98202.66;5053586;28;20080;-83
2023/03/08 00:27:10;;;;;;;7.40;5.03;;;;;;;2.64;74.81;98207.00;5053598;28;20441;-83
2023/03/08 00:29:38;;;;;;;7.20;4.40;;;;;;;2.63;75.14;98205.34;5046442;28;20052;-84
2023/03/08 00:32:05;;;;;;;6.47;4.45;;;;;;;2.62;75.01;98212.31;5053360;28;20504;-84
2023/03/08 00:34:32;;;;;;;8.23;4.45;;;;;;;2.62;75.13;98208.84;5053011;28;20045;-84
2023/03/08 00:36:58;;;;;;;5.43;4.32;;;;;;;2.59;75.14;98208.06;5052741;28;20041;-84
2023/03/08 00:39:25;;;;;;;8.68;4.97;;;;;;;2.59;75.36;98202.88;5053233;28;20063;-84
2023/03/08 00:41:52;;;;;;;6.85;4.80;;;;;;;2.58;75.14;98197.78;5053214;28;20144;-84
2023/03/08 00:44:19;;;;;;;7.22;4.97;;;;;;;2.58;75.07;98192.59;5052254;28;20052;-84
2023/03/08 00:46:45;;;;;;;5.57;4.47;;;;;;;2.56;75.37;98197.84;5052422;28;20132;-84
2023/03/08 00:49:12;;;;;;;9.20;4.70;;;;;;;2.57;75.42;98190.88;5049648;28;20749;-84
2023/03/08 00:51:39;;;;;;;6.55;4.95;;;;;;;2.57;75.61;98196.09;5052985;28;20049;-84
2023/03/08 00:54:05;;;;;;;7.18;5.50;;;;;;;2.57;75.69;98199.53;5065066;22;20045;-80
2023/03/08 00:56:34;;;;;;;10.52;4.95;;;;;;;2.59;75.90;98200.28;5030186;28;20066;-79
2023/03/08 00:59:01;;;;;;;6.55;4.85;;;;;;;2.58;75.67;98192.59;5032438;28;20115;-79
2023/03/08 01:01:27;;;;;;;10.10;4.80;;;;;;;2.59;76.13;98194.25;5031561;28;20053;-79
2023/03/08 01:03:54;;;;;;;6.82;5.43;;;;;;;2.59;75.56;98199.47;5032491;28;20125;-79
2023/03/08 01:06:21;;;;;;;11.95;5.50;;;;;;;2.60;75.58;98204.59;5035884;28;20080;-79
2023/03/08 01:08:47;;;;;;;9.60;6.18;;;;;;;2.59;75.74;98200.28;5040915;28;20061;-80
2023/03/08 01:11:19;;;;;;;9.32;5.47;;;;;;;2.59;74.98;98204.66;5043959;28;20041;-79
2023/03/08 01:13:46;;;;;;;9.40;6.00;;;;;;;2.62;75.37;98198.47;5043794;28;20056;-79
2023/03/08 01:16:26;;;;;;;10.10;6.28;;;;;;;2.60;75.67;98201.13;5051999;28;20072;-79
2023/03/08 01:18:53;;;;;;;8.50;6.45;;;;;;;2.62;76.27;98190.66;5051821;28;20064;-79
2023/03/08 01:21:20;;;;;;;10.95;7.50;;;;;;;2.60;75.82;98190.75;5052369;28;20388;-79
2023/03/08 01:23:47;;;;;;;10.95;6.97;;;;;;;2.62;75.79;98178.53;5050908;28;20045;-80
2023/03/08 01:26:16;;;;;;;13.38;7.47;;;;;;;2.62;75.89;98178.53;5050494;28;20076;-79
2023/03/08 01:28:43;;;;;;;13.25;7.35;;;;;;;2.63;75.47;98184.56;5052031;28;20088;-79
2023/03/08 01:31:15;;;;;;;11.18;8.05;;;;;;;2.59;74.95;98184.69;5051860;28;20053;-79
2023/03/08 01:33:43;;;;;;;14.70;8.70;;;;;;;2.61;75.66;98182.03;5050559;28;20099;-78
2023/03/08 01:36:13;;;;;;;14.38;9.27;;;;;;;2.60;75.70;98188.13;5051411;28;20482;-79
2023/03/08 01:38:40;;;;;;;16.90;9.35;;;;;;;2.60;75.82;98185.53;5051547;28;20491;-79
2023/03/08 01:41:12;;;;;;;16.30;10.68;;;;;;;2.58;75.80;98174.41;5047371;28;20044;-79
2023/03/08 01:43:39;;;;;;;15.52;9.93;;;;;;;2.57;75.27;98170.97;5043455;28;20122;-78
2023/03/08 01:46:25;;;;;;;17.48;11.07;;;;;;;2.53;74.68;98179.81;5051130;28;20049;-78
2023/03/08 01:49:11;;;;;;;16.40;11.15;;;;;;;2.52;75.06;98172.94;5051324;28;20102;-79
2023/03/08 01:51:51;;;;;;;15.55;9.95;;;;;;;2.46;74.70;98174.09;5051748;28;20384;-81
2023/03/08 01:54:26;;;;;;;16.58;10.35;;;;;;;2.46;75.33;98168.88;5051062;28;20587;-81
2023/03/08 01:56:57;;;;;;;20.10;12.18;;;;;;;2.42;75.65;98167.34;5050790;28;20052;-81
2023/03/08 01:59:25;;;;;;;18.95;11.27;;;;;;;2.40;76.05;98160.56;5051548;28;20045;-81
2023/03/08 02:01:51;;;;;;;21.95;12.30;;;;;;;2.38;75.77;98155.44;5051268;28;20538;-81
2023/03/08 02:04:18;;;;;;;19.55;11.75;;;;;;;2.36;75.48;98154.69;5051322;28;20079;-80
2023/03/08 02:06:45;;;;;;;21.40;11.90;;;;;;;2.34;75.75;98151.31;5050356;28;20511;-80
2023/03/08 02:09:12;;;;;;;20.00;12.10;;;;;;;2.33;75.13;98153.06;5051121;28;20053;-80
2023/03/08 02:11:40;;;;;;;19.10;12.75;;;;;;;2.32;75.68;98142.78;5051295;28;20102;-80
2023/03/08 02:14:07;;;;;;;18.27;12.43;;;;;;;2.31;76.01;98143.66;5051064;28;20053;-81
2023/03/08 02:16:33;;;;;;;21.67;13.60;;;;;;;2.30;76.43;98144.59;5049777;28;20088;-80
2023/03/08 02:19:03;;;;;;;20.50;13.57;;;;;;;2.29;75.95;98148.09;5050691;28;20075;-80
2023/03/08 02:21:30;;;;;;;20.73;13.73;;;;;;;2.28;75.70;98149.03;5050768;28;20423;-80
2023/03/08 02:24:24;;;;;;;23.40;14.70;;;;;;;2.25;75.33;98150.03;5051421;28;20091;-80
2023/03/08 02:26:59;;;;;;;22.02;14.00;;;;;;;2.27;75.65;98147.31;5050192;28;20111;-80
2023/03/08 02:29:25;;;;;;;21.92;15.05;;;;;;;2.28;76.18;98149.03;5050716;28;20087;-80
2023/03/08 02:31:51;;;;;;;23.08;15.10;;;;;;;2.28;76.00;98146.44;5050758;28;20053;-80
2023/03/08 02:34:18;;;;;;;24.27;15.32;;;;;;;2.27;76.42;98144.72;5050867;28;20088;-79
2023/03/08 02:36:44;;;;;;;25.40;16.10;;;;;;;2.27;76.45;98137.78;5050021;28;20053;-80
2023/03/08 02:39:11;;;;;;;24.40;15.13;;;;;;;2.28;76.43;98146.44;5050824;28;20049;-80
2023/03/08 02:41:37;;;;;;;25.70;16.30;;;;;;;2.29;76.50;98143.75;5050319;28;20088;-79
2023/03/08 02:44:03;;;;;;;25.63;15.98;;;;;;;2.30;76.13;98142.84;5050638;28;20053;-80
2023/03/08 02:46:30;;;;;;;23.98;15.68;;;;;;;2.31;75.97;98141.91;5048669;28;20056;-80
2023/03/08 02:48:56;;;;;;;25.13;16.48;;;;;;;2.33;76.81;98147.03;5050400;28;20091;-79
2023/03/08 02:51:22;;;;;;;24.02;15.50;;;;;;;2.34;76.57;98138.34;5050729;28;20056;-79
2023/03/08 02:53:49;;;;;;;26.08;16.08;;;;;;;2.36;76.42;98135.66;5050333;28;20045;-80
2023/03/08 02:56:15;;;;;;;23.00;15.18;;;;;;;2.36;76.06;98127.88;5049974;28;20499;-80
2023/03/08 02:58:41;;;;;;;27.15;15.25;;;;;;;2.37;76.05;98121.75;5050088;28;20139;-80
2023/03/08 03:01:12;;;;;;;24.95;16.10;;;;;;;2.35;75.99;98114.03;5050295;28;20090;-79
2023/03/08 03:03:39;;;;;;;24.23;15.45;;;;;;;2.38;76.71;98103.50;5050493;28;20049;-80
2023/03/08 03:06:17;;;;;;;30.33;16.95;;;;;;;2.37;75.22;98101.84;5050166;28;20052;-79
2023/03/08 03:08:45;;;;;;;26.10;15.27;;;;;;;2.42;76.79;98104.19;5049993;28;20053;-80
2023/03/08 03:11:18;;;;;;;24.40;16.20;;;;;;;2.43;76.17;98095.50;5050361;28;20052;-80
2023/03/08 03:13:44;;;;;;;27.75;16.08;;;;;;;2.48;76.63;98098.69;5050102;28;20450;-80
2023/03/08 03:16:13;;;;;;;22.27;15.93;;;;;;;2.48;76.20;98094.31;5049937;28;20476;-80
2023/03/08 03:18:40;;;;;;;26.52;16.67;;;;;;;2.51;75.90;98103.75;5049752;28;20253;-80
2023/03/08 03:21:10;;;;;;;27.83;17.05;;;;;;;2.50;75.46;98096.84;5050489;28;20077;-80
2023/03/08 03:23:37;;;;;;;25.80;16.27;;;;;;;2.49;75.21;98100.38;5048811;28;20084;-79
2023/03/08 03:26:05;;;;;;;29.58;16.50;;;;;;;2.47;75.35;98102.22;5049667;28;20076;-80
2023/03/08 03:28:31;;;;;;;24.92;16.42;;;;;;;2.46;75.58;98105.72;5049423;28;20060;-80
2023/03/08 03:30:58;;;;;;;29.02;17.67;;;;;;;2.43;75.35;98109.31;5050324;28;20135;-80
2023/03/08 03:33:24;;;;;;;28.13;17.52;;;;;;;2.40;75.33;98104.28;5049936;28;20099;-80
2023/03/08 03:35:51;;;;;;;27.50;17.92;;;;;;;2.39;75.45;98110.38;5049726;28;20106;-80
2023/03/08 03:38:17;;;;;;;27.50;17.58;;;;;;;2.38;75.83;98111.28;5049674;28;20052;-80
2023/03/08 03:40:44;;;;;;;31.80;19.50;;;;;;;2.34;75.71;98110.63;5048863;28;20127;-79
2023/03/08 03:43:10;;;;;;;32.40;19.40;;;;;;;2.34;75.39;98118.41;5050318;28;20092;-79
2023/03/08 03:45:36;;;;;;;28.83;19.10;;;;;;;2.34;75.38;98107.16;5049672;28;20099;-79
2023/03/08 03:48:03;;;;;;;33.13;19.58;;;;;;;2.33;75.18;98110.69;5049716;28;20052;-79
2023/03/08 03:50:29;;;;;;;32.97;19.08;;;;;;;2.29;75.99;98110.00;5049859;28;20083;-80
2023/03/08 03:52:55;;;;;;;24.63;17.20;;;;;;;2.30;75.69;98108.25;5050028;28;20045;-80
2023/03/08 03:55:22;;;;;;;32.03;18.35;;;;;;;2.28;76.17;98110.09;5049006;28;20119;-80
2023/03/08 03:57:49;;;;;;;34.15;18.50;;;;;;;2.27;76.00;98111.81;5049456;28;20505;-80
2023/03/08 04:00:16;;;;;;;29.13;18.05;;;;;;;2.27;76.16;98105.78;5049910;28;20119;-79
2023/03/08 04:02:42;;;;;;;26.42;16.65;;;;;;;2.27;76.04;98113.56;5049884;28;20064;-80
2023/03/08 04:05:09;;;;;;;26.17;16.52;;;;;;;2.26;76.22;98114.50;5049401;28;20095;-80
2023/03/08 04:07:35;;;;;;;27.55;16.52;;;;;;;2.27;76.18;98108.38;5048086;28;20057;-81
2023/03/08 04:10:01;;;;;;;25.23;15.68;;;;;;;2.26;75.84;98112.75;5049660;28;20057;-81
2023/03/08 04:12:28;;;;;;;25.02;16.83;;;;;;;2.26;75.56;98111.91;5048521;28;20103;-80
2023/03/08 04:14:54;;;;;;;22.25;14.48;;;;;;;2.26;76.15;98110.16;5047921;28;20072;-80
2023/03/08 04:17:20;;;;;;;22.55;14.55;;;;;;;2.25;75.56;98110.22;5049384;28;20056;-80
2023/03/08 04:19:49;;;;;;;24.00;14.40;;;;;;;2.22;75.65;98106.03;5049653;28;20053;-79
2023/03/08 04:22:15;;;;;;;25.13;15.75;;;;;;;2.20;75.87;98116.50;5048076;28;20057;-80
2023/03/08 04:24:41;;;;;;;24.48;14.55;;;;;;;2.18;75.41;98113.13;5049754;28;20100;-80
2023/03/08 04:27:08;;;;;;;25.42;15.30;;;;;;;2.17;75.37;98106.25;5048871;28;20659;-79
2023/03/08 04:29:34;;;;;;;24.58;14.63;;;;;;;2.15;75.46;98099.44;5048492;28;20052;-80
2023/03/08 04:32:00;;;;;;;24.25;14.70;;;;;;;2.15;75.80;98109.84;5049483;28;20052;-80
2023/03/08 04:34:27;;;;;;;29.27;16.33;;;;;;;2.12;75.66;98102.19;5049269;28;20053;-80
2023/03/08 04:36:53;;;;;;;27.27;15.80;;;;;;;2.11;76.17;98093.59;5047455;28;20061;-80
2023/03/08 04:39:20;;;;;;;25.60;15.02;;;;;;;2.11;76.06;98097.91;5049790;28;20225;-79
2023/03/08 04:41:46;;;;;;;28.52;15.23;;;;;;;2.11;75.61;98087.53;5050661;28;20107;-80
2023/03/08 04:44:12;;;;;;;27.70;15.02;;;;;;;2.12;76.08;98082.28;5053095;28;20045;-80
2023/03/08 04:46:39;;;;;;;23.95;14.52;;;;;;;2.13;75.79;98078.75;5052103;28;20200;-80
2023/03/08 04:49:05;;;;;;;23.83;14.32;;;;;;;2.13;76.11;98072.75;5052951;28;20056;-80
2023/03/08 04:51:31;;;;;;;24.27;14.32;;;;;;;2.16;76.06;98067.38;5052669;28;20485;-79
2023/03/08 04:53:58;;;;;;;26.17;15.40;;;;;;;2.14;76.25;98053.66;5052803;28;20053;-80
2023/03/08 04:56:24;;;;;;;24.77;14.88;;;;;;;2.14;75.63;98051.91;5052312;28;20475;-79
2023/03/08 04:58:50;;;;;;;23.45;13.98;;;;;;;2.13;75.78;98047.59;5052280;28;20053;-80
2023/03/08 05:01:22;;;;;;;22.77;13.52;;;;;;;2.12;75.18;98035.56;5052652;28;20080;-80
2023/03/08 05:03:48;;;;;;;22.00;14.45;;;;;;;2.13;75.75;98046.78;5052335;28;20053;-80
2023/03/08 05:06:15;;;;;;;23.90;14.27;;;;;;;2.12;75.61;98052.88;5052156;28;20107;-80
2023/03/08 05:08:41;;;;;;;23.35;14.07;;;;;;;2.13;76.23;98059.75;5051779;28;20053;-79
2023/03/08 05:11:08;;;;;;;26.42;15.02;;;;;;;2.12;75.62;98051.13;5052597;28;20087;-81
2023/03/08 05:13:37;;;;;;;22.60;14.50;;;;;;;2.11;75.48;98044.25;5052273;28;20484;-80
2023/03/08 05:16:06;;;;;;;25.88;15.73;;;;;;;2.12;75.64;98038.16;5051635;28;20049;-79
2023/03/08 05:18:33;;;;;;;26.30;14.60;;;;;;;2.13;75.96;98041.59;5051675;28;20111;-80
2023/03/08 05:21:09;;;;;;;23.23;14.05;;;;;;;2.11;75.27;98033.88;5052080;28;20710;-80
2023/03/08 05:23:35;;;;;;;25.42;14.70;;;;;;;2.13;76.10;98034.63;5052255;28;20468;-80
2023/03/08 05:26:04;;;;;;;22.05;13.65;;;;;;;2.12;75.19;98043.34;5051671;28;20060;-79
2023/03/08 05:28:32;;;;;;;25.58;14.95;;;;;;;2.13;75.87;98039.00;5051474;28;20562;-79
2023/03/08 05:31:10;;;;;;;23.42;14.40;;;;;;;2.13;75.33;98039.00;5051970;28;20392;-79
2023/03/08 05:33:38;;;;;;;22.17;13.20;;;;;;;2.14;76.34;98038.94;5050768;28;20056;-79
2023/03/08 05:36:05;;;;;;;25.63;14.63;;;;;;;2.15;76.06;98034.56;5044957;28;20037;-79
2023/03/08 05:38:32;;;;;;;22.08;13.27;;;;;;;2.15;76.16;98018.97;5043835;28;20067;-79
2023/03/08 05:41:07;;;;;;;23.70;13.18;;;;;;;2.13;75.23;98026.84;5044118;28;20503;-79
2023/03/08 05:43:34;;;;;;;20.10;13.88;;;;;;;2.16;76.24;98026.69;5050136;28;20048;-79
2023/03/08 05:46:07;;;;;;;26.13;14.88;;;;;;;2.14;76.05;98027.69;5051474;28;20045;-79
2023/03/08 05:48:34;;;;;;;22.52;14.52;;;;;;;2.16;76.29;98023.25;5049929;28;20052;-79
2023/03/08 05:51:12;;;;;;;25.05;14.23;;;;;;;2.12;74.29;98026.91;5051256;28;20094;-80
2023/03/08 05:53:39;;;;;;;21.92;14.27;;;;;;;2.14;75.40;98018.16;5051396;28;20126;-80
2023/03/08 05:56:15;;;;;;;29.65;15.45;;;;;;;2.11;74.75;98017.47;5036731;28;20107;-80
2023/03/08 05:58:41;;;;;;;23.70;14.02;;;;;;;2.13;76.07;98011.25;5031079;28;20057;-81
2023/03/08 06:01:20;;;;;;;26.60;15.70;;;;;;;2.12;75.97;98008.75;5031447;28;20069;-80
2023/03/08 06:03:49;;;;;;;23.95;15.05;;;;;;;2.12;76.03;98007.00;5031304;28;20459;-80
2023/03/08 06:06:16;;;;;;;24.25;15.23;;;;;;;2.11;75.65;98002.72;5031058;28;20458;-81
2023/03/08 06:08:43;;;;;;;25.55;15.60;;;;;;;2.13;76.01;98008.66;5033775;28;20098;-80
2023/03/08 06:11:10;;;;;;;21.52;13.40;;;;;;;2.12;76.49;97999.22;5039648;28;20053;-79
2023/03/08 06:13:36;;;;;;;21.65;13.90;;;;;;;2.13;76.32;98006.06;5047347;28;20436;-80
2023/03/08 06:16:03;;;;;;;24.08;14.63;;;;;;;2.13;75.90;98006.06;5049429;28;20084;-80
2023/03/08 06:18:30;;;;;;;28.17;13.95;;;;;;;2.13;75.69;97998.28;5049971;28;20057;-80
2023/03/08 06:20:59;;;;;;;24.02;14.65;;;;;;;2.12;75.70;97994.03;5048671;28;20053;-79
2023/03/08 06:23:27;;;;;;;25.58;13.57;;;;;;;2.13;76.27;97987.09;5050483;28;20110;-79
2023/03/08 06:25:54;;;;;;;22.55;13.18;;;;;;;2.14;76.41;97989.59;5048557;28;20045;-79
2023/03/08 06:28:21;;;;;;;21.35;13.95;;;;;;;2.14;76.36;97981.81;5050648;28;20061;-80
2023/03/08 06:30:48;;;;;;;21.63;13.43;;;;;;;2.17;75.96;97976.44;5050907;28;20053;-79
2023/03/08 06:33:16;;;;;;;21.25;12.82;;;;;;;2.15;76.22;97967.06;5050878;28;20473;-79
2023/03/08 06:35:43;;;;;;;21.65;12.35;;;;;;;2.17;76.09;97966.06;5050200;28;20483;-79
2023/03/08 06:38:10;;;;;;;22.15;12.90;;;;;;;2.18;75.82;97961.72;5050413;28;20060;-79
2023/03/08 06:40:36;;;;;;;21.27;13.38;;;;;;;2.18;75.12;97957.38;5050904;28;20060;-79
2023/03/08 06:43:03;;;;;;;18.98;12.05;;;;;;;2.17;75.76;97952.28;5050893;28;20064;-79
2023/03/08 06:45:29;;;;;;;21.05;12.75;;;;;;;2.16;75.68;97946.22;5048667;28;20540;-79
2023/03/08 06:47:55;;;;;;;22.40;12.98;;;;;;;2.18;76.06;97947.00;5050746;28;20411;-80
2023/03/08 06:50:22;;;;;;;17.35;11.82;;;;;;;2.18;76.13;97939.22;5050404;28;20061;-80
2023/03/08 06:52:48;;;;;;;20.90;12.18;;;;;;;2.22;76.23;97932.09;5050752;28;20049;-79
2023/03/08 06:57:39;;;;;;;21.97;12.03;;;;;;;2.29;76.62;97924.81;5043059;22;20067;-79
2023/03/08 07:00:08;;;;;;;17.73;11.18;;;;;;;2.33;76.49;97921.97;5030854;28;20288;-79
2023/03/08 07:02:34;;;;;;;20.48;11.20;;;;;;;2.39;76.75;97923.41;5030432;28;20140;-79
2023/03/08 07:05:01;;;;;;;19.60;12.15;;;;;;;2.44;76.82;97928.38;5030574;28;20049;-80
2023/03/08 07:07:27;;;;;;;22.02;12.68;;;;;;;2.50;76.66;97929.81;5030511;28;20053;-79
2023/03/08 07:09:54;;;;;;;21.95;12.35;;;;;;;2.54;76.39;97929.53;5030922;28;20092;-79
2023/03/08 07:12:20;;;;;;;19.63;12.52;;;;;;;2.59;76.68;97931.91;5030713;28;20053;-82
2023/03/08 07:14:47;;;;;;;22.35;13.18;;;;;;;2.63;75.95;97929.97;5030414;28;20053;-81
2023/03/08 07:17:13;;;;;;;21.92;12.73;;;;;;;2.65;76.35;97923.75;5029957;28;20140;-82
2023/03/08 07:19:40;;;;;;;22.10;12.50;;;;;;;2.68;75.81;97928.81;5030494;28;20041;-82
2023/03/08 07:22:06;;;;;;;26.08;13.27;;;;;;;2.70;76.17;97933.91;5030496;28;20543;-82
2023/03/08 07:24:33;;;;;;;22.70;13.75;;;;;;;2.71;75.70;97936.44;5029014;28;20057;-82
2023/03/08 07:26:59;;;;;;;24.42;14.52;;;;;;;2.73;76.08;97934.59;5029930;28;20045;-82
2023/03/08 07:29:26;;;;;;;23.90;14.00;;;;;;;2.74;76.20;97927.63;5030279;28;20048;-81
2023/03/08 07:31:52;;;;;;;21.83;14.02;;;;;;;2.74;75.56;97928.47;5030238;28;20045;-83
2023/03/08 07:34:19;;;;;;;22.95;14.02;;;;;;;2.77;76.06;97931.81;5030234;28;20049;-82
2023/03/08 07:36:45;;;;;;;24.17;13.80;;;;;;;2.77;75.71;97926.63;5029805;28;20056;-82
2023/03/08 07:39:12;;;;;;;20.65;12.52;;;;;;;2.78;76.26;97931.75;5030562;28;20479;-82
2023/03/08 07:41:38;;;;;;;25.30;14.38;;;;;;;2.79;76.17;97928.22;5030403;28;20124;-81
2023/03/08 07:44:05;;;;;;;24.75;14.05;;;;;;;2.81;76.39;97931.56;5030299;28;20060;-81
2023/03/08 07:46:31;;;;;;;23.92;13.75;;;;;;;2.85;76.50;97920.06;5029929;28;20049;-82
2023/03/08 07:48:58;;;;;;;23.38;13.50;;;;;;;2.90;76.92;97924.19;5030219;28;20049;-82
2023/03/08 07:51:25;;;;;;;24.15;14.07;;;;;;;2.95;77.37;97936.00;5030363;28;20068;-82
2023/03/08 07:53:52;;;;;;;24.58;14.43;;;;;;;3.02;77.09;97933.09;5030213;28;20085;-81
2023/03/08 07:56:18;;;;;;;23.38;14.10;;;;;;;3.09;77.74;97930.03;5029917;28;20465;-82
2023/03/08 07:58:45;;;;;;;23.63;14.32;;;;;;;3.19;77.43;97935.56;5029870;28;20600;-82
2023/03/08 08:01:13;;;;;;;25.27;15.15;;;;;;;3.26;77.34;97929.09;5030805;28;20462;-82
2023/03/08 08:03:39;;;;;;;28.70;15.45;;;;;;;3.35;77.45;97930.34;5030158;28;20085;-81
2023/03/08 08:06:07;;;;;;;28.60;16.42;;;;;;;3.42;77.41;97924.78;5029844;28;20053;-81
2023/03/08 08:08:33;;;;;;;27.80;15.90;;;;;;;3.50;77.01;97920.81;5029987;28;20060;-82
2023/03/08 08:11:00;;;;;;;30.92;17.00;;;;;;;3.57;77.12;97921.31;5030070;28;20049;-81
2023/03/08 08:13:26;;;;;;;29.10;16.13;;;;;;;3.65;77.10;97924.31;5029874;28;20418;-82
2023/03/08 08:16:00;;;;;;;29.80;17.42;;;;;;;3.69;75.93;97919.75;5032608;28;20057;-82
2023/03/08 08:18:27;;;;;;;28.13;16.25;;;;;;;3.79;76.85;97922.66;5033849;28;20053;-82
2023/03/08 08:21:05;;;;;;;32.42;16.40;;;;;;;3.83;75.55;97911.13;5033957;28;20049;-82
2023/03/08 08:23:33;;;;;;;30.08;17.70;;;;;;;3.92;76.71;97909.72;5032567;28;20057;-82
2023/03/08 08:26:03;;;;;;;32.42;18.48;;;;;;;3.98;76.58;97906.78;5033298;28;20045;-82
2023/03/08 08:28:29;;;;;;;35.28;18.52;;;;;;;4.04;76.57;97902.97;5033389;28;20045;-82
2023/03/08 08:30:56;;;;;;;31.70;17.77;;;;;;;4.09;76.54;97895.72;5033427;28;20136;-82
2023/03/08 08:33:22;;;;;;;32.13;19.10;;;;;;;4.15;76.58;97894.53;5032144;28;20585;-82
2023/03/08 08:35:49;;;;;;;29.75;17.98;;;;;;;4.21;76.76;97898.50;5033348;28;20045;-82
2023/03/08 08:38:15;;;;;;;36.17;19.85;;;;;;;4.27;76.57;97892.94;5031735;28;20057;-82
2023/03/08 08:40:42;;;;;;;36.00;19.85;;;;;;;4.32;76.43;97890.03;5033150;28;20056;-83
2023/03/08 08:43:09;;;;;;;32.17;18.58;;;;;;;4.36;76.63;97891.50;5033313;28;20533;-82
2023/03/08 08:45:35;;;;;;;34.20;18.77;;;;;;;4.43;76.41;97890.22;5032921;28;20406;-82
2023/03/08 08:48:02;;;;;;;34.70;19.83;;;;;;;4.49;76.59;97889.81;5033165;28;20087;-82
2023/03/08 08:50:28;;;;;;;34.40;20.00;;;;;;;4.53;76.58;97873.06;5033131;28;20144;-82
2023/03/08 08:52:55;;;;;;;36.75;21.40;;;;;;;4.58;76.40;97872.78;5032972;28;20466;-82
2023/03/08 08:55:21;;;;;;;36.05;20.30;;;;;;;4.64;76.68;97869.78;5032439;28;20088;-82
2023/03/08 08:57:48;;;;;;;36.63;21.48;;;;;;;4.69;76.05;97861.69;5032965;28;20354;-82
2023/03/08 09:00:15;;;;;;;41.10;20.92;;;;;;;4.73;76.36;97862.31;5033300;28;20144;-82
2023/03/08 09:02:41;;;;;;;38.67;21.45;;;;;;;4.77;75.94;97867.25;5033441;28;20084;-82
2023/03/08 09:05:08;;;;;;;37.78;22.90;;;;;;;4.80;75.86;97861.00;5032671;28;20091;-82
2023/03/08 09:07:35;;;;;;;39.70;21.90;;;;;;;4.82;75.80;97857.34;5031216;28;20049;-82
2023/03/08 09:10:05;;;;;;;38.35;22.25;;;;;;;4.85;75.56;97853.72;5032938;28;20061;-82
2023/03/08 09:12:31;;;;;;;43.30;21.52;;;;;;;4.87;75.59;97851.00;5033232;28;20111;-82
2023/03/08 09:14:58;;;;;;;39.03;21.83;;;;;;;4.87;75.37;97844.03;5032519;28;20089;-82
2023/03/08 09:17:25;;;;;;;43.45;22.25;;;;;;;4.89;75.61;97846.53;5031029;28;20509;-82
2023/03/08 09:19:51;;;;;;;41.97;23.67;;;;;;;4.90;75.55;97837.78;5033021;28;20049;-81
2023/03/08 09:22:18;;;;;;;43.53;22.40;;;;;;;4.91;75.67;97836.84;5032709;28;20045;-82
2023/03/08 09:24:44;;;;;;;39.67;22.42;;;;;;;4.93;75.48;97834.97;5032881;28;20071;-82
2023/03/08 09:27:11;;;;;;;42.55;22.90;;;;;;;4.93;75.57;97835.81;5030227;28;20128;-82
2023/03/08 09:29:37;;;;;;;46.70;24.52;;;;;;;4.94;75.76;97840.06;5032563;28;20081;-82
2023/03/08 09:32:05;;;;;;;40.90;23.27;;;;;;;4.95;75.64;97830.50;5032292;28;20498;-82
2023/03/08 09:34:32;;;;;;;45.95;24.15;;;;;;;4.97;75.61;97836.44;5032423;28;20473;-81
2023/03/08 09:36:58;;;;;;;43.90;22.85;;;;;;;4.99;75.92;97837.19;5030419;28;20053;-81
2023/03/08 09:39:26;;;;;;;39.72;22.13;;;;;;;5.00;76.14;97828.41;5032830;28;20136;-82
2023/03/08 09:42:02;;;;;;;41.85;23.20;;;;;;;5.01;74.73;97824.06;5032342;28;20502;-81
2023/03/08 09:44:44;;;;;;;43.13;23.73;;;;;;;5.03;74.40;97820.41;5032406;28;20165;-82
2023/03/08 09:47:29;;;;;;;43.60;23.75;;;;;;;5.04;73.71;97818.63;5031675;28;20049;-82
2023/03/08 09:50:11;;;;;;;43.83;23.60;;;;;;;5.05;73.75;97821.13;5032144;28;20491;-82
2023/03/08 09:52:50;;;;;;;44.65;24.17;;;;;;;5.09;75.67;97813.97;5032017;28;20085;-82
2023/03/08 09:55:30;;;;;;;44.70;24.33;;;;;;;5.05;73.93;97821.13;5031654;28;20050;-81
2023/03/08 09:58:21;;;;;;;47.22;25.58;;;;;;;5.05;73.33;97820.31;5031466;28;20085;-83
2023/03/08 10:00:47;;;;;;;45.58;24.50;;;;;;;5.08;75.49;97815.72;5030695;28;20045;-82
2023/03/08 10:03:47;;;;;;;49.50;26.35;;;;;;;5.02;73.49;97803.09;5032416;28;20060;-82
2023/03/08 10:06:43;;;;;;;54.20;25.38;;;;;;;5.02;73.50;97802.25;5024126;28;20057;-82
2023/03/08 10:09:35;;;;;;;50.47;25.77;;;;;;;5.02;73.36;97800.47;5031800;28;20057;-81
2023/03/08 10:12:40;;;;;;;46.88;24.63;;;;;;;5.04;74.70;97800.34;5031720;28;20054;-81
2023/03/08 10:15:19;;;;;;;47.47;23.58;;;;;;;5.05;74.44;97791.63;4987430;28;20088;-82
2023/03/08 10:17:56;;;;;;;52.35;25.80;;;;;;;5.08;74.71;97789.63;5031210;28;20049;-82
2023/03/08 10:20:30;;;;;;;49.67;26.23;;;;;;;5.12;75.13;97789.44;5030272;28;20053;-81
2023/03/08 10:22:59;;;;;;;50.22;25.80;;;;;;;5.16;75.95;97783.09;5031435;28;20049;-82
2023/03/08 10:25:32;;;;;;;50.08;26.75;;;;;;;5.16;74.90;97776.06;5030894;28;20436;-82
2023/03/08 10:28:02;;;;;;;53.67;26.20;;;;;;;5.20;76.12;97774.13;5031254;28;20053;-81
2023/03/08 10:30:41;;;;;;;46.95;25.00;;;;;;;5.21;74.97;97770.56;5031291;28;20533;-82
2023/03/08 10:33:11;;;;;;;49.08;25.17;;;;;;;5.26;75.68;97759.81;5031229;28;20149;-82
2023/03/08 10:36:11;;;;;;;52.67;25.83;;;;;;;5.27;74.71;97766.72;5031106;28;20409;-81
2023/03/08 10:38:38;;;;;;;43.28;23.83;;;;;;;5.34;76.56;97755.75;5030004;28;20049;-82
2023/03/08 10:41:17;;;;;;;49.58;24.60;;;;;;;5.34;74.56;97758.34;5031243;28;20070;-82
2023/03/08 10:43:46;;;;;;;47.13;24.02;;;;;;;5.40;76.32;97754.50;5031025;28;20057;-83
2023/03/08 10:46:17;;;;;;;45.05;23.50;;;;;;;5.44;76.31;97753.34;5030809;28;20132;-82
2023/03/08 10:48:44;;;;;;;45.33;24.20;;;;;;;5.51;77.30;97738.13;5030663;28;20482;-82
2023/03/08 10:51:15;;;;;;;50.03;24.38;;;;;;;5.57;75.98;97749.91;5031046;28;20053;-81
2023/03/08 10:53:56;;;;;;;48.35;24.40;;;;;;;5.63;74.96;97746.88;5030838;28;20053;-82
2023/03/08 10:56:26;;;;;;;45.92;24.13;;;;;;;5.70;76.23;97742.91;5030423;28;20558;-81
2023/03/08 10:58:55;;;;;;;45.80;25.10;;;;;;;5.77;76.66;97739.84;5030734;28;20497;-82
2023/03/08 11:01:26;;;;;;;46.58;22.85;;;;;;;5.80;75.70;97737.84;5031034;28;20049;-82
2023/03/08 11:04:12;;;;;;;38.67;21.05;;;;;;;5.84;74.43;97739.31;5029488;28;20060;-81
2023/03/08 11:06:39;;;;;;;42.92;23.88;;;;;;;5.92;76.98;97732.72;5030198;28;20092;-81
2023/03/08 11:09:26;;;;;;;43.45;24.00;;;;;;;5.97;74.82;97741.91;5030652;28;20100;-81
2023/03/08 11:11:55;;;;;;;42.10;22.60;;;;;;;6.11;78.01;97740.97;5030790;28;20069;-82
2023/03/08 11:14:23;;;;;;;45.90;23.30;;;;;;;6.24;78.33;97740.91;5030561;28;20052;-82
2023/03/08 11:17:14;;;;;;;39.20;20.88;;;;;;;6.36;76.30;97743.59;5030120;28;20045;-82
2023/03/08 11:19:58;;;;;;;37.78;20.23;;;;;;;6.53;76.57;97744.16;5030629;28;20060;-82
2023/03/08 11:22:30;;;;;;;36.78;20.38;;;;;;;6.67;76.38;97736.13;5030594;28;20045;-82
2023/03/08 11:25:20;;;;;;;34.65;17.80;;;;;;;6.85;75.43;97727.84;5030271;28;20055;-82
2023/03/08 11:28:11;;;;;;;26.58;16.73;;;;;;;7.06;75.38;97730.63;5030657;28;20065;-82
2023/03/08 11:31:11;;;;;;;29.20;16.75;;;;;;;7.25;73.99;97729.25;5030655;28;20463;-82
2023/03/08 11:33:59;;;;;;;24.02;14.13;;;;;;;7.47;74.95;97719.75;5030266;28;20502;-82
2023/03/08 11:36:37;;;;;;;25.83;15.05;;;;;;;7.63;73.38;97725.44;5030316;28;20486;-82
2023/03/08 11:39:09;;;;;;;27.05;15.88;;;;;;;7.79;76.42;97725.09;5030367;28;20046;-82